sensor_id;sensor_type;location;lat;lon;timestamp;temperature;humidity
39079;DHT22;24829;49.208;12.080;2023-02-15T00:01:37;-0.30;99.90
39079;DHT22;24829;49.208;12.080;2023-02-15T00:04:04;-0.20;99.90
39079;DHT22;24829;49.208;12.080;2023-02-15T00:06:30;-0.20;99.90
39079;DHT22;24829;49.208;12.080;2023-02-15T00:08:56;-0.20;99.90
39079;DHT22;24829;49.208;12.080;2023-02-15T00:11:22;-0.10;99.90
39079;DHT22;24829;49.208;12.080;2023-02-15T00:14:10;-0.10;99.90
39079;DHT22;24829;49.208;12.080;2023-02-15T00:16:37;-0.20;99.90
39079;DHT22;24829;49.208;12.080;2023-02-15T00:19:04;-0.20;99.90
39079;DHT22;24829;49.208;12.080;2023-02-15T00:21:31;-0.20;99.90
39079;DHT22;24829;49.208;12.080;2023-02-15T00:23:58;-0.20;99.90
39079;DHT22;24829;49.208;12.080;2023-02-15T00:26:24;-0.20;99.90
39079;DHT22;24829;49.208;12.080;2023-02-15T00:28:49;-0.20;99.90
39079;DHT22;24829;49.208;12.080;2023-02-15T00:31:15;-0.20;99.90
39079;DHT22;24829;49.208;12.080;2023-02-15T00:33:41;-0.20;99.90
39079;DHT22;24829;49.208;12.080;2023-02-15T00:36:08;-0.20;99.90
39079;DHT22;24829;49.208;12.080;2023-02-15T00:38:34;-0.20;99.90
39079;DHT22;24829;49.208;12.080;2023-02-15T00:41:02;-0.30;99.90
39079;DHT22;24829;49.208;12.080;2023-02-15T00:43:29;-0.30;99.90
39079;DHT22;24829;49.208;12.080;2023-02-15T00:45:55;-0.30;99.90
39079;DHT22;24829;49.208;12.080;2023-02-15T00:48:21;-0.30;99.90
39079;DHT22;24829;49.208;12.080;2023-02-15T00:50:51;-0.30;99.90
39079;DHT22;24829;49.208;12.080;2023-02-15T00:53:17;-0.30;99.90
39079;DHT22;24829;49.208;12.080;2023-02-15T00:55:42;-0.30;99.90
39079;DHT22;24829;49.208;12.080;2023-02-15T00:58:09;-0.30;99.90
39079;DHT22;24829;49.208;12.080;2023-02-15T01:00:36;-0.20;99.90
39079;DHT22;24829;49.208;12.080;2023-02-15T01:03:02;-0.20;99.90
39079;DHT22;24829;49.208;12.080;2023-02-15T01:05:28;-0.20;99.90
39079;DHT22;24829;49.208;12.080;2023-02-15T01:07:55;-0.20;99.90
39079;DHT22;24829;49.208;12.080;2023-02-15T01:10:21;-0.30;99.90
39079;DHT22;24829;49.208;12.080;2023-02-15T01:12:46;-0.30;99.90
39079;DHT22;24829;49.208;12.080;2023-02-15T01:15:12;-0.30;99.90
39079;DHT22;24829;49.208;12.080;2023-02-15T01:17:37;-0.30;99.90
39079;DHT22;24829;49.208;12.080;2023-02-15T01:20:03;-0.30;99.90
39079;DHT22;24829;49.208;12.080;2023-02-15T01:22:29;-0.30;99.90
39079;DHT22;24829;49.208;12.080;2023-02-15T01:24:54;-0.40;99.90
39079;DHT22;24829;49.208;12.080;2023-02-15T01:27:20;-0.40;99.90
39079;DHT22;24829;49.208;12.080;2023-02-15T01:29:45;-0.40;99.90
39079;DHT22;24829;49.208;12.080;2023-02-15T01:32:12;-0.40;99.90
39079;DHT22;24829;49.208;12.080;2023-02-15T01:34:38;-0.40;99.90
39079;DHT22;24829;49.208;12.080;2023-02-15T01:37:03;-0.40;99.90
39079;DHT22;24829;49.208;12.080;2023-02-15T01:39:29;-0.40;99.90
39079;DHT22;24829;49.208;12.080;2023-02-15T01:41:54;-0.40;99.90
39079;DHT22;24829;49.208;12.080;2023-02-15T01:44:46;-0.50;99.90
39079;DHT22;24829;49.208;12.080;2023-02-15T01:47:16;-0.50;99.90
39079;DHT22;24829;49.208;12.080;2023-02-15T01:49:43;-0.60;99.90
39079;DHT22;24829;49.208;12.080;2023-02-15T01:52:13;-0.60;99.90
39079;DHT22;24829;49.208;12.080;2023-02-15T01:54:41;-0.60;99.90
39079;DHT22;24829;49.208;12.080;2023-02-15T01:57:12;-0.60;99.90
39079;DHT22;24829;49.208;12.080;2023-02-15T01:59:39;-0.60;99.90
39079;DHT22;24829;49.208;12.080;2023-02-15T02:02:09;-0.70;99.90
39079;DHT22;24829;49.208;12.080;2023-02-15T02:04:45;-0.80;99.90
39079;DHT22;24829;49.208;12.080;2023-02-15T02:07:14;-0.80;99.90
39079;DHT22;24829;49.208;12.080;2023-02-15T02:09:41;-0.90;99.90
39079;DHT22;24829;49.208;12.080;2023-02-15T02:12:08;-0.90;99.90
39079;DHT22;24829;49.208;12.080;2023-02-15T02:14:35;-0.80;99.90
39079;DHT22;24829;49.208;12.080;2023-02-15T02:17:11;-0.80;99.90
39079;DHT22;24829;49.208;12.080;2023-02-15T02:19:45;-0.80;99.90
39079;DHT22;24829;49.208;12.080;2023-02-15T02:27:50;-0.80;99.90
39079;DHT22;24829;49.208;12.080;2023-02-15T02:39:06;-0.70;99.90
39079;DHT22;24829;49.208;12.080;2023-02-15T02:44:13;-0.70;99.90
39079;DHT22;24829;49.208;12.080;2023-02-15T02:47:43;-0.70;99.90
39079;DHT22;24829;49.208;12.080;2023-02-15T02:49:44;-0.70;99.90
39079;DHT22;24829;49.208;12.080;2023-02-15T02:52:42;-0.70;99.90
39079;DHT22;24829;49.208;12.080;2023-02-15T02:55:22;-0.70;99.90
39079;DHT22;24829;49.208;12.080;2023-02-15T02:58:00;-0.70;99.90
39079;DHT22;24829;49.208;12.080;2023-02-15T03:00:31;-0.70;99.90
39079;DHT22;24829;49.208;12.080;2023-02-15T03:03:05;-0.70;99.90
39079;DHT22;24829;49.208;12.080;2023-02-15T03:05:34;-0.70;99.90
39079;DHT22;24829;49.208;12.080;2023-02-15T03:08:02;-0.70;99.90
39079;DHT22;24829;49.208;12.080;2023-02-15T03:10:32;-0.70;99.90
39079;DHT22;24829;49.208;12.080;2023-02-15T03:12:59;-0.70;99.90
39079;DHT22;24829;49.208;12.080;2023-02-15T03:15:31;-0.70;99.90
39079;DHT22;24829;49.208;12.080;2023-02-15T03:18:22;-0.80;99.90
39079;DHT22;24829;49.208;12.080;2023-02-15T03:20:51;-0.80;99.90
39079;DHT22;24829;49.208;12.080;2023-02-15T03:23:21;-0.80;99.90
39079;DHT22;24829;49.208;12.080;2023-02-15T03:25:51;-0.80;99.90
39079;DHT22;24829;49.208;12.080;2023-02-15T03:28:29;-0.80;99.90
39079;DHT22;24829;49.208;12.080;2023-02-15T03:31:00;-0.80;99.90
39079;DHT22;24829;49.208;12.080;2023-02-15T03:33:28;-0.80;99.90
39079;DHT22;24829;49.208;12.080;2023-02-15T03:36:08;-0.80;99.90
39079;DHT22;24829;49.208;12.080;2023-02-15T03:38:47;-0.80;99.90
39079;DHT22;24829;49.208;12.080;2023-02-15T03:41:18;-0.90;99.90
39079;DHT22;24829;49.208;12.080;2023-02-15T03:43:55;-0.90;99.90
39079;DHT22;24829;49.208;12.080;2023-02-15T03:46:53;-1.00;99.90
39079;DHT22;24829;49.208;12.080;2023-02-15T03:49:24;-1.00;99.90
39079;DHT22;24829;49.208;12.080;2023-02-15T03:51:53;-1.00;99.90
39079;DHT22;24829;49.208;12.080;2023-02-15T03:54:26;-1.10;99.90
39079;DHT22;24829;49.208;12.080;2023-02-15T03:57:11;-1.10;99.90
39079;DHT22;24829;49.208;12.080;2023-02-15T03:59:57;-1.10;99.90
39079;DHT22;24829;49.208;12.080;2023-02-15T04:02:55;-1.20;99.90
39079;DHT22;24829;49.208;12.080;2023-02-15T04:05:24;-1.20;99.90
39079;DHT22;24829;49.208;12.080;2023-02-15T04:07:50;-1.10;99.90
39079;DHT22;24829;49.208;12.080;2023-02-15T04:10:16;-1.10;99.90
39079;DHT22;24829;49.208;12.080;2023-02-15T04:13:00;-1.10;99.90
39079;DHT22;24829;49.208;12.080;2023-02-15T04:15:25;-1.10;99.90
39079;DHT22;24829;49.208;12.080;2023-02-15T04:18:09;-1.10;99.90
39079;DHT22;24829;49.208;12.080;2023-02-15T04:20:35;-1.10;99.90
39079;DHT22;24829;49.208;12.080;2023-02-15T04:23:19;-1.00;99.90
39079;DHT22;24829;49.208;12.080;2023-02-15T04:26:04;-1.10;99.90
39079;DHT22;24829;49.208;12.080;2023-02-15T04:28:30;-1.10;99.90
39079;DHT22;24829;49.208;12.080;2023-02-15T04:30:56;-1.10;99.90
39079;DHT22;24829;49.208;12.080;2023-02-15T04:33:21;-1.10;99.90
39079;DHT22;24829;49.208;12.080;2023-02-15T04:35:47;-1.20;99.90
39079;DHT22;24829;49.208;12.080;2023-02-15T04:38:12;-1.10;99.90
39079;DHT22;24829;49.208;12.080;2023-02-15T04:40:39;-1.20;99.90
39079;DHT22;24829;49.208;12.080;2023-02-15T04:43:05;-1.20;99.90
39079;DHT22;24829;49.208;12.080;2023-02-15T04:45:30;-1.10;99.90
39079;DHT22;24829;49.208;12.080;2023-02-15T04:47:56;-1.20;99.90
39079;DHT22;24829;49.208;12.080;2023-02-15T04:50:21;-1.20;99.90
39079;DHT22;24829;49.208;12.080;2023-02-15T04:52:47;-1.20;99.90
39079;DHT22;24829;49.208;12.080;2023-02-15T04:55:12;-1.20;99.90
39079;DHT22;24829;49.208;12.080;2023-02-15T04:57:39;-1.10;99.90
39079;DHT22;24829;49.208;12.080;2023-02-15T05:00:05;-1.10;99.90
39079;DHT22;24829;49.208;12.080;2023-02-15T05:02:31;-1.10;99.90
39079;DHT22;24829;49.208;12.080;2023-02-15T05:04:56;-1.00;99.90
39079;DHT22;24829;49.208;12.080;2023-02-15T05:07:22;-1.10;99.90
39079;DHT22;24829;49.208;12.080;2023-02-15T05:09:47;-1.10;99.90
39079;DHT22;24829;49.208;12.080;2023-02-15T05:12:13;-1.20;99.90
39079;DHT22;24829;49.208;12.080;2023-02-15T05:14:38;-1.30;99.90
39079;DHT22;24829;49.208;12.080;2023-02-15T05:17:04;-1.30;99.90
39079;DHT22;24829;49.208;12.080;2023-02-15T05:19:30;-1.30;99.90
39079;DHT22;24829;49.208;12.080;2023-02-15T05:21:56;-1.40;99.90
39079;DHT22;24829;49.208;12.080;2023-02-15T05:24:21;-1.40;99.90
39079;DHT22;24829;49.208;12.080;2023-02-15T05:27:06;-1.40;99.90
39079;DHT22;24829;49.208;12.080;2023-02-15T05:29:50;-1.40;99.90
39079;DHT22;24829;49.208;12.080;2023-02-15T05:32:15;-1.50;99.90
39079;DHT22;24829;49.208;12.080;2023-02-15T05:34:41;-1.50;99.90
39079;DHT22;24829;49.208;12.080;2023-02-15T05:37:06;-1.50;99.90
39079;DHT22;24829;49.208;12.080;2023-02-15T05:39:33;-1.50;99.90
39079;DHT22;24829;49.208;12.080;2023-02-15T05:41:59;-1.50;99.90
39079;DHT22;24829;49.208;12.080;2023-02-15T05:44:25;-1.60;99.90
39079;DHT22;24829;49.208;12.080;2023-02-15T05:46:51;-1.50;99.90
39079;DHT22;24829;49.208;12.080;2023-02-15T05:49:16;-1.50;99.90
39079;DHT22;24829;49.208;12.080;2023-02-15T05:51:42;-1.50;99.90
39079;DHT22;24829;49.208;12.080;2023-02-15T05:54:07;-1.50;99.90
39079;DHT22;24829;49.208;12.080;2023-02-15T05:56:33;-1.50;99.90
39079;DHT22;24829;49.208;12.080;2023-02-15T05:58:58;-1.50;99.90
39079;DHT22;24829;49.208;12.080;2023-02-15T06:01:24;-1.50;99.90
39079;DHT22;24829;49.208;12.080;2023-02-15T06:03:50;-1.50;99.90
39079;DHT22;24829;49.208;12.080;2023-02-15T06:06:15;-1.40;99.90
39079;DHT22;24829;49.208;12.080;2023-02-15T06:08:41;-1.50;99.90
39079;DHT22;24829;49.208;12.080;2023-02-15T06:11:07;-1.50;99.90
39079;DHT22;24829;49.208;12.080;2023-02-15T06:13:33;-1.40;99.90
39079;DHT22;24829;49.208;12.080;2023-02-15T06:15:59;-1.50;99.90
39079;DHT22;24829;49.208;12.080;2023-02-15T06:18:25;-1.40;99.90
39079;DHT22;24829;49.208;12.080;2023-02-15T06:20:52;-1.40;99.90
39079;DHT22;24829;49.208;12.080;2023-02-15T06:23:17;-1.30;99.90
39079;DHT22;24829;49.208;12.080;2023-02-15T06:25:44;-1.30;99.90
39079;DHT22;24829;49.208;12.080;2023-02-15T06:28:10;-1.30;99.90
39079;DHT22;24829;49.208;12.080;2023-02-15T06:30:36;-1.30;99.90
39079;DHT22;24829;49.208;12.080;2023-02-15T06:33:01;-1.30;99.90
39079;DHT22;24829;49.208;12.080;2023-02-15T06:35:27;-1.20;99.90
39079;DHT22;24829;49.208;12.080;2023-02-15T06:37:53;-1.20;99.90
39079;DHT22;24829;49.208;12.080;2023-02-15T06:40:18;-1.20;99.90
39079;DHT22;24829;49.208;12.080;2023-02-15T06:42:44;-1.10;99.90
39079;DHT22;24829;49.208;12.080;2023-02-15T06:45:10;-1.20;99.90
39079;DHT22;24829;49.208;12.080;2023-02-15T06:47:36;-1.20;99.90
39079;DHT22;24829;49.208;12.080;2023-02-15T06:50:02;-1.30;99.90
39079;DHT22;24829;49.208;12.080;2023-02-15T06:52:28;-1.30;99.90
39079;DHT22;24829;49.208;12.080;2023-02-15T06:54:54;-1.30;99.90
39079;DHT22;24829;49.208;12.080;2023-02-15T06:57:20;-1.30;99.90
39079;DHT22;24829;49.208;12.080;2023-02-15T06:59:46;-1.30;99.90
39079;DHT22;24829;49.208;12.080;2023-02-15T07:02:12;-1.30;99.90
39079;DHT22;24829;49.208;12.080;2023-02-15T07:04:37;-1.30;99.90
39079;DHT22;24829;49.208;12.080;2023-02-15T07:07:03;-1.20;99.90
39079;DHT22;24829;49.208;12.080;2023-02-15T07:09:29;-1.20;99.90
39079;DHT22;24829;49.208;12.080;2023-02-15T07:11:54;-1.20;99.90
39079;DHT22;24829;49.208;12.080;2023-02-15T07:14:38;-1.20;99.90
39079;DHT22;24829;49.208;12.080;2023-02-15T07:17:05;-1.20;99.90
39079;DHT22;24829;49.208;12.080;2023-02-15T07:19:31;-1.30;99.90
39079;DHT22;24829;49.208;12.080;2023-02-15T07:21:56;-1.20;99.90
39079;DHT22;24829;49.208;12.080;2023-02-15T07:24:22;-1.20;99.90
39079;DHT22;24829;49.208;12.080;2023-02-15T07:26:48;-1.10;99.90
39079;DHT22;24829;49.208;12.080;2023-02-15T07:29:13;-1.10;99.90
39079;DHT22;24829;49.208;12.080;2023-02-15T07:31:39;-1.10;99.90
39079;DHT22;24829;49.208;12.080;2023-02-15T07:34:06;-1.10;99.90
39079;DHT22;24829;49.208;12.080;2023-02-15T07:36:31;-1.10;99.90
39079;DHT22;24829;49.208;12.080;2023-02-15T07:38:57;-1.20;99.90
39079;DHT22;24829;49.208;12.080;2023-02-15T07:41:23;-1.10;99.90
39079;DHT22;24829;49.208;12.080;2023-02-15T07:43:48;-1.10;99.90
39079;DHT22;24829;49.208;12.080;2023-02-15T07:46:16;-1.00;99.90
39079;DHT22;24829;49.208;12.080;2023-02-15T07:48:42;-1.00;99.90
39079;DHT22;24829;49.208;12.080;2023-02-15T07:51:09;-0.90;99.90
39079;DHT22;24829;49.208;12.080;2023-02-15T07:53:36;-0.90;99.90
39079;DHT22;24829;49.208;12.080;2023-02-15T07:56:10;-0.80;99.90
39079;DHT22;24829;49.208;12.080;2023-02-15T07:58:36;-0.80;99.90
39079;DHT22;24829;49.208;12.080;2023-02-15T08:01:26;-0.80;99.90
39079;DHT22;24829;49.208;12.080;2023-02-15T08:03:53;-0.80;99.90
39079;DHT22;24829;49.208;12.080;2023-02-15T08:06:20;-0.80;99.90
39079;DHT22;24829;49.208;12.080;2023-02-15T08:08:46;-0.80;99.90
39079;DHT22;24829;49.208;12.080;2023-02-15T08:14:16;-0.70;99.90
39079;DHT22;24829;49.208;12.080;2023-02-15T08:19:22;-0.80;99.90
39079;DHT22;24829;49.208;12.080;2023-02-15T08:21:59;-0.90;99.90
39079;DHT22;24829;49.208;12.080;2023-02-15T08:24:28;-0.90;99.90
39079;DHT22;24829;49.208;12.080;2023-02-15T08:26:54;-1.00;99.90
39079;DHT22;24829;49.208;12.080;2023-02-15T08:29:22;-1.00;99.90
39079;DHT22;24829;49.208;12.080;2023-02-15T08:31:49;-1.00;99.90
39079;DHT22;24829;49.208;12.080;2023-02-15T08:34:19;-1.00;99.90
39079;DHT22;24829;49.208;12.080;2023-02-15T08:36:45;-1.00;99.90
39079;DHT22;24829;49.208;12.080;2023-02-15T08:39:13;-1.00;99.90
39079;DHT22;24829;49.208;12.080;2023-02-15T08:41:42;-1.00;99.90
39079;DHT22;24829;49.208;12.080;2023-02-15T08:44:08;-0.90;99.90
39079;DHT22;24829;49.208;12.080;2023-02-15T08:46:41;-0.90;99.90
39079;DHT22;24829;49.208;12.080;2023-02-15T08:49:07;-0.90;99.90
39079;DHT22;24829;49.208;12.080;2023-02-15T08:51:35;-0.90;99.90
39079;DHT22;24829;49.208;12.080;2023-02-15T08:54:04;-0.90;99.90
39079;DHT22;24829;49.208;12.080;2023-02-15T08:56:33;-0.90;99.90
39079;DHT22;24829;49.208;12.080;2023-02-15T08:58:59;-0.90;99.90
39079;DHT22;24829;49.208;12.080;2023-02-15T09:01:28;-0.90;99.90
39079;DHT22;24829;49.208;12.080;2023-02-15T09:04:02;-0.90;99.90
39079;DHT22;24829;49.208;12.080;2023-02-15T09:06:29;-0.90;99.90
39079;DHT22;24829;49.208;12.080;2023-02-15T09:08:56;-0.80;99.90
39079;DHT22;24829;49.208;12.080;2023-02-15T09:11:24;-0.80;99.90
39079;DHT22;24829;49.208;12.080;2023-02-15T09:13:53;-0.80;99.90
39079;DHT22;24829;49.208;12.080;2023-02-15T09:16:19;-0.70;99.90
39079;DHT22;24829;49.208;12.080;2023-02-15T09:18:46;-0.80;99.90
39079;DHT22;24829;49.208;12.080;2023-02-15T09:21:17;-0.70;99.90
39079;DHT22;24829;49.208;12.080;2023-02-15T09:23:45;-0.60;99.90
39079;DHT22;24829;49.208;12.080;2023-02-15T09:26:13;-0.60;99.90
39079;DHT22;24829;49.208;12.080;2023-02-15T09:28:39;-0.50;99.90
39079;DHT22;24829;49.208;12.080;2023-02-15T09:31:11;-0.50;99.90
39079;DHT22;24829;49.208;12.080;2023-02-15T09:33:37;-0.50;99.90
39079;DHT22;24829;49.208;12.080;2023-02-15T09:36:04;-0.40;99.90
39079;DHT22;24829;49.208;12.080;2023-02-15T09:38:30;-0.50;99.90
39079;DHT22;24829;49.208;12.080;2023-02-15T09:41:23;-0.40;99.90
39079;DHT22;24829;49.208;12.080;2023-02-15T09:43:58;-0.40;99.90
39079;DHT22;24829;49.208;12.080;2023-02-15T09:46:38;-0.50;99.90
39079;DHT22;24829;49.208;12.080;2023-02-15T09:52:29;-0.30;99.90
39079;DHT22;24829;49.208;12.080;2023-02-15T09:57:36;-0.40;99.90
39079;DHT22;24829;49.208;12.080;2023-02-15T10:03:27;-0.40;99.90
39079;DHT22;24829;49.208;12.080;2023-02-15T10:08:39;-0.40;99.90
39079;DHT22;24829;49.208;12.080;2023-02-15T10:11:22;-0.40;99.90
39079;DHT22;24829;49.208;12.080;2023-02-15T10:14:29;-0.30;99.90
39079;DHT22;24829;49.208;12.080;2023-02-15T10:25:36;-0.30;99.90
39079;DHT22;24829;49.208;12.080;2023-02-15T10:28:12;-0.30;99.90
39079;DHT22;24829;49.208;12.080;2023-02-15T10:33:40;-0.30;99.90
39079;DHT22;24829;49.208;12.080;2023-02-15T10:36:23;-0.30;99.90
39079;DHT22;24829;49.208;12.080;2023-02-15T10:41:57;-0.40;99.90
39079;DHT22;24829;49.208;12.080;2023-02-15T10:53:17;-0.40;99.90
39079;DHT22;24829;49.208;12.080;2023-02-15T11:03:52;-0.40;99.90
39079;DHT22;24829;49.208;12.080;2023-02-15T11:06:21;-0.40;99.90
39079;DHT22;24829;49.208;12.080;2023-02-15T11:08:54;-0.40;99.90
39079;DHT22;24829;49.208;12.080;2023-02-15T11:11:34;-0.40;99.90
39079;DHT22;24829;49.208;12.080;2023-02-15T11:14:05;-0.30;99.90
39079;DHT22;24829;49.208;12.080;2023-02-15T11:16:41;-0.30;99.90
39079;DHT22;24829;49.208;12.080;2023-02-15T11:19:32;-0.30;99.90
39079;DHT22;24829;49.208;12.080;2023-02-15T11:22:04;-0.30;99.90
39079;DHT22;24829;49.208;12.080;2023-02-15T11:24:33;-0.20;99.90
39079;DHT22;24829;49.208;12.080;2023-02-15T11:27:20;-0.10;99.90
39079;DHT22;24829;49.208;12.080;2023-02-15T11:30:02;0.00;99.90
39079;DHT22;24829;49.208;12.080;2023-02-15T11:32:47;0.00;99.90
39079;DHT22;24829;49.208;12.080;2023-02-15T11:35:29;0.10;99.90
39079;DHT22;24829;49.208;12.080;2023-02-15T11:38:14;0.10;99.90
39079;DHT22;24829;49.208;12.080;2023-02-15T11:40:48;0.10;99.90
39079;DHT22;24829;49.208;12.080;2023-02-15T11:45:54;0.00;99.90
39079;DHT22;24829;49.208;12.080;2023-02-15T11:48:20;0.00;99.90
39079;DHT22;24829;49.208;12.080;2023-02-15T11:50:46;0.00;99.90
39079;DHT22;24829;49.208;12.080;2023-02-15T11:53:12;0.10;99.90
39079;DHT22;24829;49.208;12.080;2023-02-15T11:55:38;0.10;99.90
39079;DHT22;24829;49.208;12.080;2023-02-15T12:00:38;0.20;99.90
39079;DHT22;24829;49.208;12.080;2023-02-15T12:06:00;0.10;99.90
39079;DHT22;24829;49.208;12.080;2023-02-15T12:08:37;0.10;99.90
39079;DHT22;24829;49.208;12.080;2023-02-15T12:11:09;0.10;99.90
39079;DHT22;24829;49.208;12.080;2023-02-15T12:14:03;0.10;99.90
39079;DHT22;24829;49.208;12.080;2023-02-15T12:16:31;0.10;99.90
39079;DHT22;24829;49.208;12.080;2023-02-15T12:18:59;0.20;99.90
39079;DHT22;24829;49.208;12.080;2023-02-15T12:21:34;0.10;99.90
39079;DHT22;24829;49.208;12.080;2023-02-15T12:24:18;0.20;99.90
39079;DHT22;24829;49.208;12.080;2023-02-15T12:26:44;0.20;99.90
39079;DHT22;24829;49.208;12.080;2023-02-15T12:29:23;0.20;99.90
39079;DHT22;24829;49.208;12.080;2023-02-15T12:31:51;0.10;99.90
39079;DHT22;24829;49.208;12.080;2023-02-15T12:34:30;0.10;99.90
39079;DHT22;24829;49.208;12.080;2023-02-15T12:37:00;0.10;99.90
39079;DHT22;24829;49.208;12.080;2023-02-15T12:39:31;0.10;99.90
39079;DHT22;24829;49.208;12.080;2023-02-15T12:42:15;0.10;99.90
39079;DHT22;24829;49.208;12.080;2023-02-15T12:45:00;0.10;99.90
39079;DHT22;24829;49.208;12.080;2023-02-15T12:47:28;0.00;99.90
39079;DHT22;24829;49.208;12.080;2023-02-15T12:50:22;0.00;99.90
39079;DHT22;24829;49.208;12.080;2023-02-15T12:52:50;0.00;99.90
39079;DHT22;24829;49.208;12.080;2023-02-15T12:55:21;0.00;99.90
39079;DHT22;24829;49.208;12.080;2023-02-15T12:57:47;0.00;99.90
39079;DHT22;24829;49.208;12.080;2023-02-15T13:02:52;0.10;99.90
39079;DHT22;24829;49.208;12.080;2023-02-15T13:05:31;0.10;99.90
39079;DHT22;24829;49.208;12.080;2023-02-15T13:08:18;0.20;99.90
39079;DHT22;24829;49.208;12.080;2023-02-15T13:11:03;0.20;99.90
39079;DHT22;24829;49.208;12.080;2023-02-15T13:13:32;0.20;99.90
39079;DHT22;24829;49.208;12.080;2023-02-15T13:16:05;0.30;99.90
39079;DHT22;24829;49.208;12.080;2023-02-15T13:18:45;0.30;99.90
39079;DHT22;24829;49.208;12.080;2023-02-15T13:21:18;0.20;99.90
39079;DHT22;24829;49.208;12.080;2023-02-15T13:24:13;0.10;99.90
39079;DHT22;24829;49.208;12.080;2023-02-15T13:26:42;0.10;99.90
39079;DHT22;24829;49.208;12.080;2023-02-15T13:29:18;0.10;99.90
39079;DHT22;24829;49.208;12.080;2023-02-15T13:31:46;0.10;99.90
39079;DHT22;24829;49.208;12.080;2023-02-15T13:34:21;0.10;99.90
39079;DHT22;24829;49.208;12.080;2023-02-15T13:39:31;0.10;99.90
39079;DHT22;24829;49.208;12.080;2023-02-15T13:58:30;0.00;99.90
39079;DHT22;24829;49.208;12.080;2023-02-15T14:12:55;0.00;99.90
39079;DHT22;24829;49.208;12.080;2023-02-15T14:15:54;0.10;99.90
39079;DHT22;24829;49.208;12.080;2023-02-15T14:18:42;0.10;99.90
39079;DHT22;24829;49.208;12.080;2023-02-15T14:23:57;0.00;99.90
39079;DHT22;24829;49.208;12.080;2023-02-15T14:29:29;-0.20;99.90
39079;DHT22;24829;49.208;12.080;2023-02-15T14:32:07;-0.20;99.90
39079;DHT22;24829;49.208;12.080;2023-02-15T14:34:54;-0.20;99.90
39079;DHT22;24829;49.208;12.080;2023-02-15T14:37:44;-0.20;99.90
39079;DHT22;24829;49.208;12.080;2023-02-15T14:43:24;-0.20;99.90
39079;DHT22;24829;49.208;12.080;2023-02-15T14:45:55;-0.20;99.90
39079;DHT22;24829;49.208;12.080;2023-02-15T14:50:52;-0.20;99.90
39079;DHT22;24829;49.208;12.080;2023-02-15T14:53:33;-0.10;99.90
39079;DHT22;24829;49.208;12.080;2023-02-15T14:58:57;-0.20;99.90
39079;DHT22;24829;49.208;12.080;2023-02-15T15:01:30;-0.10;99.90
39079;DHT22;24829;49.208;12.080;2023-02-15T15:04:06;-0.10;99.90
39079;DHT22;24829;49.208;12.080;2023-02-15T15:06:36;-0.20;99.90
39079;DHT22;24829;49.208;12.080;2023-02-15T15:09:25;-0.10;99.90
39079;DHT22;24829;49.208;12.080;2023-02-15T15:11:53;-0.20;99.90
39079;DHT22;24829;49.208;12.080;2023-02-15T15:16:56;-0.10;99.90
39079;DHT22;24829;49.208;12.080;2023-02-15T15:22:42;-0.10;99.90
39079;DHT22;24829;49.208;12.080;2023-02-15T15:28:06;0.00;99.90
39079;DHT22;24829;49.208;12.080;2023-02-15T15:33:11;-0.10;99.90
39079;DHT22;24829;49.208;12.080;2023-02-15T15:38:49;-0.10;99.90
39079;DHT22;24829;49.208;12.080;2023-02-15T15:49:49;-0.20;99.90
39079;DHT22;24829;49.208;12.080;2023-02-15T15:52:19;-0.20;99.90
39079;DHT22;24829;49.208;12.080;2023-02-15T15:54:48;-0.10;99.90
39079;DHT22;24829;49.208;12.080;2023-02-15T15:59:49;-0.10;99.90
39079;DHT22;24829;49.208;12.080;2023-02-15T16:02:15;-0.10;99.90
39079;DHT22;24829;49.208;12.080;2023-02-15T16:04:42;-0.10;99.90
39079;DHT22;24829;49.208;12.080;2023-02-15T16:09:59;-0.10;99.90
39079;DHT22;24829;49.208;12.080;2023-02-15T16:12:28;-0.10;99.90
39079;DHT22;24829;49.208;12.080;2023-02-15T16:14:55;-0.10;99.90
39079;DHT22;24829;49.208;12.080;2023-02-15T16:17:26;-0.10;99.90
39079;DHT22;24829;49.208;12.080;2023-02-15T16:20:00;-0.10;99.90
39079;DHT22;24829;49.208;12.080;2023-02-15T16:22:26;-0.20;99.90
39079;DHT22;24829;49.208;12.080;2023-02-15T16:28:07;-0.20;99.90
39079;DHT22;24829;49.208;12.080;2023-02-15T16:30:35;-0.20;99.90
39079;DHT22;24829;49.208;12.080;2023-02-15T16:33:11;-0.20;99.90
39079;DHT22;24829;49.208;12.080;2023-02-15T16:35:39;-0.30;99.90
39079;DHT22;24829;49.208;12.080;2023-02-15T16:38:09;-0.30;99.90
39079;DHT22;24829;49.208;12.080;2023-02-15T16:40:41;-0.30;99.90
39079;DHT22;24829;49.208;12.080;2023-02-15T16:43:13;-0.40;99.90
39079;DHT22;24829;49.208;12.080;2023-02-15T16:45:40;-0.40;99.90
39079;DHT22;24829;49.208;12.080;2023-02-15T16:48:13;-0.40;99.90
39079;DHT22;24829;49.208;12.080;2023-02-15T16:50:40;-0.40;99.90
39079;DHT22;24829;49.208;12.080;2023-02-15T16:53:28;-0.40;99.90
39079;DHT22;24829;49.208;12.080;2023-02-15T16:55:59;-0.40;99.90
39079;DHT22;24829;49.208;12.080;2023-02-15T16:58:29;-0.40;99.90
39079;DHT22;24829;49.208;12.080;2023-02-15T17:00:58;-0.40;99.90
39079;DHT22;24829;49.208;12.080;2023-02-15T17:03:25;-0.30;99.90
39079;DHT22;24829;49.208;12.080;2023-02-15T17:06:02;-0.30;99.90
39079;DHT22;24829;49.208;12.080;2023-02-15T17:08:34;-0.30;99.90
39079;DHT22;24829;49.208;12.080;2023-02-15T17:13:38;-0.30;99.90
39079;DHT22;24829;49.208;12.080;2023-02-15T17:18:44;-0.30;99.90
39079;DHT22;24829;49.208;12.080;2023-02-15T17:21:18;-0.30;99.90
39079;DHT22;24829;49.208;12.080;2023-02-15T17:23:47;-0.40;99.90
39079;DHT22;24829;49.208;12.080;2023-02-15T17:26:22;-0.40;99.90
39079;DHT22;24829;49.208;12.080;2023-02-15T17:28:55;-0.40;99.90
39079;DHT22;24829;49.208;12.080;2023-02-15T17:31:26;-0.40;99.90
39079;DHT22;24829;49.208;12.080;2023-02-15T17:33:54;-0.40;99.90
39079;DHT22;24829;49.208;12.080;2023-02-15T17:36:22;-0.50;99.90
39079;DHT22;24829;49.208;12.080;2023-02-15T17:41:26;-0.50;99.90
39079;DHT22;24829;49.208;12.080;2023-02-15T17:43:52;-0.60;99.90
39079;DHT22;24829;49.208;12.080;2023-02-15T17:46:18;-0.60;99.90
39079;DHT22;24829;49.208;12.080;2023-02-15T17:48:48;-0.60;99.90
39079;DHT22;24829;49.208;12.080;2023-02-15T17:51:15;-0.70;99.90
39079;DHT22;24829;49.208;12.080;2023-02-15T17:53:42;-0.70;99.90
39079;DHT22;24829;49.208;12.080;2023-02-15T17:56:32;-0.60;99.90
39079;DHT22;24829;49.208;12.080;2023-02-15T17:58:57;-0.60;99.90
39079;DHT22;24829;49.208;12.080;2023-02-15T18:01:23;-0.60;99.90
39079;DHT22;24829;49.208;12.080;2023-02-15T18:04:12;-0.60;99.90
39079;DHT22;24829;49.208;12.080;2023-02-15T18:06:57;-0.60;99.90
39079;DHT22;24829;49.208;12.080;2023-02-15T18:09:41;-0.60;99.90
39079;DHT22;24829;49.208;12.080;2023-02-15T18:12:28;-0.60;99.90
39079;DHT22;24829;49.208;12.080;2023-02-15T18:14:55;-0.60;99.90
39079;DHT22;24829;49.208;12.080;2023-02-15T18:17:28;-0.60;99.90
39079;DHT22;24829;49.208;12.080;2023-02-15T18:19:54;-0.60;99.90
39079;DHT22;24829;49.208;12.080;2023-02-15T18:22:20;-0.70;99.90